Weather at Tuy Airstrip

Public forecast

Using degrees Celsius for public forecast. Weather courtesy of forecast.io.

Closest aviation weather report (METAR) to Tuy Airstrip

Closest report is Ninoy Aquino International Airport, 34.0 nm (63.0 km) NNE. Retrieved 2021/03/09 08:00 UTC (45 minutes ago):

RPLL 090800Z 08010KT 9999 SCT023 BKN100 31/19 Q1012 NOSIG RMK A2988

Closest aviation forecast (TAF) to Tuy Airstrip

Closest forecast is Ninoy Aquino International Airport, 34.0 nm (63.0 km) NNE. Retrieved 2021/03/09 06:00 UTC (3 hours ago):

TAF RPLL 090500Z 0906/1012 10006KT 9999 FEW025 SCT100 TX33/0906Z TN26/0921Z TEMPO 0906/0912 13010KT SCT023 BKN100 TEMPO 0912/0918 11005KT FEW023 BKN100